sensor_id;sensor_type;location;lat;lon;timestamp;temperature;humidity
37594;DHT22;23441;50.856;6.076;2024-01-07T00:02:26;2.00;99.90
37594;DHT22;23441;50.856;6.076;2024-01-07T00:05:12;1.90;99.90
37594;DHT22;23441;50.856;6.076;2024-01-07T00:07:58;1.90;99.90
37594;DHT22;23441;50.856;6.076;2024-01-07T00:10:44;1.90;99.90
37594;DHT22;23441;50.856;6.076;2024-01-07T00:13:30;1.90;99.90
37594;DHT22;23441;50.856;6.076;2024-01-07T00:16:16;1.80;99.90
37594;DHT22;23441;50.856;6.076;2024-01-07T00:19:02;1.90;99.90
37594;DHT22;23441;50.856;6.076;2024-01-07T00:21:48;1.80;99.90
37594;DHT22;23441;50.856;6.076;2024-01-07T00:24:35;1.70;99.90
37594;DHT22;23441;50.856;6.076;2024-01-07T00:27:21;1.70;99.90
37594;DHT22;23441;50.856;6.076;2024-01-07T00:30:07;1.70;99.90
37594;DHT22;23441;50.856;6.076;2024-01-07T00:32:53;1.70;99.90
37594;DHT22;23441;50.856;6.076;2024-01-07T00:35:39;1.60;99.90
37594;DHT22;23441;50.856;6.076;2024-01-07T00:38:25;1.70;99.90
37594;DHT22;23441;50.856;6.076;2024-01-07T00:41:11;1.60;99.90
37594;DHT22;23441;50.856;6.076;2024-01-07T00:43:57;1.50;99.90
37594;DHT22;23441;50.856;6.076;2024-01-07T00:46:43;1.40;99.90
37594;DHT22;23441;50.856;6.076;2024-01-07T00:49:28;1.60;99.90
37594;DHT22;23441;50.856;6.076;2024-01-07T00:52:14;1.70;99.90
37594;DHT22;23441;50.856;6.076;2024-01-07T00:55:00;1.70;99.90
37594;DHT22;23441;50.856;6.076;2024-01-07T00:57:49;1.60;99.90
37594;DHT22;23441;50.856;6.076;2024-01-07T01:00:35;1.60;99.90
37594;DHT22;23441;50.856;6.076;2024-01-07T01:03:21;1.70;99.90
37594;DHT22;23441;50.856;6.076;2024-01-07T01:06:07;1.70;99.90
37594;DHT22;23441;50.856;6.076;2024-01-07T01:08:53;1.70;99.90
37594;DHT22;23441;50.856;6.076;2024-01-07T01:11:39;1.70;99.90
37594;DHT22;23441;50.856;6.076;2024-01-07T01:14:25;1.80;99.90
37594;DHT22;23441;50.856;6.076;2024-01-07T01:17:11;1.80;99.90
37594;DHT22;23441;50.856;6.076;2024-01-07T01:19:56;1.80;99.90
37594;DHT22;23441;50.856;6.076;2024-01-07T01:22:42;1.80;99.90
37594;DHT22;23441;50.856;6.076;2024-01-07T01:25:28;1.80;99.90
37594;DHT22;23441;50.856;6.076;2024-01-07T01:28:15;1.80;99.90
37594;DHT22;23441;50.856;6.076;2024-01-07T01:31:01;1.70;99.90
37594;DHT22;23441;50.856;6.076;2024-01-07T01:33:47;1.60;99.90
37594;DHT22;23441;50.856;6.076;2024-01-07T01:36:33;1.70;99.90
37594;DHT22;23441;50.856;6.076;2024-01-07T01:39:19;1.70;99.90
37594;DHT22;23441;50.856;6.076;2024-01-07T01:42:04;1.70;99.90
37594;DHT22;23441;50.856;6.076;2024-01-07T01:44:50;1.70;99.90
37594;DHT22;23441;50.856;6.076;2024-01-07T01:47:37;1.70;99.90
37594;DHT22;23441;50.856;6.076;2024-01-07T01:50:24;1.70;99.90
37594;DHT22;23441;50.856;6.076;2024-01-07T01:53:10;1.70;99.90
37594;DHT22;23441;50.856;6.076;2024-01-07T01:55:57;1.70;99.90
37594;DHT22;23441;50.856;6.076;2024-01-07T01:58:44;1.70;99.90
37594;DHT22;23441;50.856;6.076;2024-01-07T02:01:30;1.60;99.90
37594;DHT22;23441;50.856;6.076;2024-01-07T02:04:17;1.70;99.90
37594;DHT22;23441;50.856;6.076;2024-01-07T02:07:03;1.60;99.90
37594;DHT22;23441;50.856;6.076;2024-01-07T02:09:49;1.70;99.90
37594;DHT22;23441;50.856;6.076;2024-01-07T02:12:35;1.70;99.90
37594;DHT22;23441;50.856;6.076;2024-01-07T02:15:21;1.60;99.90
37594;DHT22;23441;50.856;6.076;2024-01-07T02:18:07;1.60;99.90
37594;DHT22;23441;50.856;6.076;2024-01-07T02:20:53;1.60;99.90
37594;DHT22;23441;50.856;6.076;2024-01-07T02:23:39;1.60;99.90
37594;DHT22;23441;50.856;6.076;2024-01-07T02:26:25;1.60;99.90
37594;DHT22;23441;50.856;6.076;2024-01-07T02:29:10;1.70;99.90
37594;DHT22;23441;50.856;6.076;2024-01-07T02:31:56;1.70;99.90
37594;DHT22;23441;50.856;6.076;2024-01-07T02:34:42;1.70;99.90
37594;DHT22;23441;50.856;6.076;2024-01-07T02:37:29;1.70;99.90
37594;DHT22;23441;50.856;6.076;2024-01-07T02:40:15;1.60;99.90
37594;DHT22;23441;50.856;6.076;2024-01-07T02:43:01;1.70;99.90
37594;DHT22;23441;50.856;6.076;2024-01-07T02:45:47;1.70;99.90
37594;DHT22;23441;50.856;6.076;2024-01-07T02:48:33;1.70;99.90
37594;DHT22;23441;50.856;6.076;2024-01-07T02:51:19;1.70;99.90
37594;DHT22;23441;50.856;6.076;2024-01-07T02:54:05;1.70;99.90
37594;DHT22;23441;50.856;6.076;2024-01-07T02:56:50;1.70;99.90
37594;DHT22;23441;50.856;6.076;2024-01-07T02:59:36;1.60;99.90
37594;DHT22;23441;50.856;6.076;2024-01-07T03:02:22;1.60;99.90
37594;DHT22;23441;50.856;6.076;2024-01-07T03:05:08;1.60;99.90
37594;DHT22;23441;50.856;6.076;2024-01-07T03:07:54;1.60;99.90
37594;DHT22;23441;50.856;6.076;2024-01-07T03:10:40;1.70;99.90
37594;DHT22;23441;50.856;6.076;2024-01-07T03:13:26;1.70;99.90
37594;DHT22;23441;50.856;6.076;2024-01-07T03:16:22;1.70;99.90
37594;DHT22;23441;50.856;6.076;2024-01-07T03:19:08;1.60;99.90
37594;DHT22;23441;50.856;6.076;2024-01-07T03:21:54;1.70;99.90
37594;DHT22;23441;50.856;6.076;2024-01-07T03:24:41;1.70;99.90
37594;DHT22;23441;50.856;6.076;2024-01-07T03:27:27;1.70;99.90
37594;DHT22;23441;50.856;6.076;2024-01-07T03:30:13;1.70;99.90
37594;DHT22;23441;50.856;6.076;2024-01-07T03:32:59;1.80;99.90
37594;DHT22;23441;50.856;6.076;2024-01-07T03:35:45;1.80;99.90
37594;DHT22;23441;50.856;6.076;2024-01-07T03:38:31;1.80;99.90
37594;DHT22;23441;50.856;6.076;2024-01-07T03:41:18;1.80;99.90
37594;DHT22;23441;50.856;6.076;2024-01-07T03:44:04;1.80;99.90
37594;DHT22;23441;50.856;6.076;2024-01-07T03:46:50;1.80;99.90
37594;DHT22;23441;50.856;6.076;2024-01-07T03:49:37;1.80;99.90
37594;DHT22;23441;50.856;6.076;2024-01-07T03:52:23;1.80;99.90
37594;DHT22;23441;50.856;6.076;2024-01-07T03:55:09;1.80;99.90
37594;DHT22;23441;50.856;6.076;2024-01-07T03:57:55;1.90;99.90
37594;DHT22;23441;50.856;6.076;2024-01-07T04:00:41;1.90;99.90
37594;DHT22;23441;50.856;6.076;2024-01-07T04:03:27;1.90;99.90
37594;DHT22;23441;50.856;6.076;2024-01-07T04:06:13;1.70;99.90
37594;DHT22;23441;50.856;6.076;2024-01-07T04:08:59;1.70;99.90
37594;DHT22;23441;50.856;6.076;2024-01-07T04:11:45;1.80;99.90
37594;DHT22;23441;50.856;6.076;2024-01-07T04:14:31;1.80;99.90
37594;DHT22;23441;50.856;6.076;2024-01-07T04:17:19;1.80;99.90
37594;DHT22;23441;50.856;6.076;2024-01-07T04:20:08;1.70;99.90
37594;DHT22;23441;50.856;6.076;2024-01-07T04:22:58;1.70;99.90
37594;DHT22;23441;50.856;6.076;2024-01-07T04:25:44;1.70;99.90
37594;DHT22;23441;50.856;6.076;2024-01-07T04:28:30;1.60;99.90
37594;DHT22;23441;50.856;6.076;2024-01-07T04:31:16;1.60;99.90
37594;DHT22;23441;50.856;6.076;2024-01-07T04:34:02;1.50;99.90
37594;DHT22;23441;50.856;6.076;2024-01-07T04:36:48;1.60;99.90
37594;DHT22;23441;50.856;6.076;2024-01-07T04:39:34;1.60;99.90
37594;DHT22;23441;50.856;6.076;2024-01-07T04:42:20;1.60;99.90
37594;DHT22;23441;50.856;6.076;2024-01-07T04:45:07;1.60;99.90
37594;DHT22;23441;50.856;6.076;2024-01-07T04:47:55;1.60;99.90
37594;DHT22;23441;50.856;6.076;2024-01-07T04:50:41;1.60;99.90
37594;DHT22;23441;50.856;6.076;2024-01-07T04:53:29;1.60;99.90
37594;DHT22;23441;50.856;6.076;2024-01-07T04:56:15;1.60;99.90
37594;DHT22;23441;50.856;6.076;2024-01-07T04:59:01;1.50;99.90
37594;DHT22;23441;50.856;6.076;2024-01-07T05:01:48;1.50;99.90
37594;DHT22;23441;50.856;6.076;2024-01-07T05:04:35;1.50;99.90
37594;DHT22;23441;50.856;6.076;2024-01-07T05:07:21;1.50;99.90
37594;DHT22;23441;50.856;6.076;2024-01-07T05:10:07;1.50;99.90
37594;DHT22;23441;50.856;6.076;2024-01-07T05:12:53;1.60;99.90
37594;DHT22;23441;50.856;6.076;2024-01-07T05:15:39;1.60;99.90
37594;DHT22;23441;50.856;6.076;2024-01-07T05:18:25;1.60;99.90
37594;DHT22;23441;50.856;6.076;2024-01-07T05:21:11;1.50;99.90
37594;DHT22;23441;50.856;6.076;2024-01-07T05:23:57;1.50;99.90
37594;DHT22;23441;50.856;6.076;2024-01-07T05:26:43;1.40;99.90
37594;DHT22;23441;50.856;6.076;2024-01-07T05:29:30;1.40;99.90
37594;DHT22;23441;50.856;6.076;2024-01-07T05:32:16;1.40;99.90
37594;DHT22;23441;50.856;6.076;2024-01-07T05:35:02;1.40;99.90
37594;DHT22;23441;50.856;6.076;2024-01-07T05:37:48;1.40;99.90
37594;DHT22;23441;50.856;6.076;2024-01-07T05:40:34;1.40;99.90
37594;DHT22;23441;50.856;6.076;2024-01-07T05:43:20;1.40;99.90
37594;DHT22;23441;50.856;6.076;2024-01-07T05:46:06;1.50;99.90
37594;DHT22;23441;50.856;6.076;2024-01-07T05:48:52;1.40;99.90
37594;DHT22;23441;50.856;6.076;2024-01-07T05:51:41;1.40;99.90
37594;DHT22;23441;50.856;6.076;2024-01-07T05:54:27;1.40;99.90
37594;DHT22;23441;50.856;6.076;2024-01-07T05:57:13;1.40;99.90
37594;DHT22;23441;50.856;6.076;2024-01-07T05:59:59;1.40;99.90
37594;DHT22;23441;50.856;6.076;2024-01-07T06:02:45;1.40;99.90
37594;DHT22;23441;50.856;6.076;2024-01-07T06:05:31;1.40;99.90
37594;DHT22;23441;50.856;6.076;2024-01-07T06:08:17;1.40;99.90
37594;DHT22;23441;50.856;6.076;2024-01-07T06:11:03;1.50;99.90
37594;DHT22;23441;50.856;6.076;2024-01-07T06:13:49;1.50;99.90
37594;DHT22;23441;50.856;6.076;2024-01-07T06:16:35;1.50;99.90
37594;DHT22;23441;50.856;6.076;2024-01-07T06:19:21;1.40;99.90
37594;DHT22;23441;50.856;6.076;2024-01-07T06:22:07;1.50;99.90
37594;DHT22;23441;50.856;6.076;2024-01-07T06:24:52;1.50;99.90
37594;DHT22;23441;50.856;6.076;2024-01-07T06:27:39;1.50;99.90
37594;DHT22;23441;50.856;6.076;2024-01-07T06:30:25;1.50;99.90
37594;DHT22;23441;50.856;6.076;2024-01-07T06:33:11;1.40;99.90
37594;DHT22;23441;50.856;6.076;2024-01-07T06:35:58;1.40;99.90
37594;DHT22;23441;50.856;6.076;2024-01-07T06:38:45;1.40;99.90
37594;DHT22;23441;50.856;6.076;2024-01-07T06:41:31;1.40;99.90
37594;DHT22;23441;50.856;6.076;2024-01-07T06:44:17;1.50;99.90
37594;DHT22;23441;50.856;6.076;2024-01-07T06:47:03;1.40;99.90
37594;DHT22;23441;50.856;6.076;2024-01-07T06:49:49;1.40;99.90
37594;DHT22;23441;50.856;6.076;2024-01-07T06:52:35;1.40;99.90
37594;DHT22;23441;50.856;6.076;2024-01-07T06:55:21;1.40;99.90
37594;DHT22;23441;50.856;6.076;2024-01-07T06:58:07;1.40;99.90
37594;DHT22;23441;50.856;6.076;2024-01-07T07:00:53;1.40;99.90
37594;DHT22;23441;50.856;6.076;2024-01-07T07:03:40;1.30;99.90
37594;DHT22;23441;50.856;6.076;2024-01-07T07:06:27;1.20;99.90
37594;DHT22;23441;50.856;6.076;2024-01-07T07:09:13;1.30;99.90
37594;DHT22;23441;50.856;6.076;2024-01-07T07:11:59;1.30;99.90
37594;DHT22;23441;50.856;6.076;2024-01-07T07:14:45;1.30;99.90
37594;DHT22;23441;50.856;6.076;2024-01-07T07:17:32;1.30;99.90
37594;DHT22;23441;50.856;6.076;2024-01-07T07:20:18;1.30;99.90
37594;DHT22;23441;50.856;6.076;2024-01-07T07:23:05;1.30;99.90
37594;DHT22;23441;50.856;6.076;2024-01-07T07:25:51;1.20;99.90
37594;DHT22;23441;50.856;6.076;2024-01-07T07:28:37;1.10;99.90
37594;DHT22;23441;50.856;6.076;2024-01-07T07:31:23;1.20;99.90
37594;DHT22;23441;50.856;6.076;2024-01-07T07:34:09;1.20;99.90
37594;DHT22;23441;50.856;6.076;2024-01-07T07:36:55;1.20;99.90
37594;DHT22;23441;50.856;6.076;2024-01-07T07:39:41;1.20;99.90
37594;DHT22;23441;50.856;6.076;2024-01-07T07:42:27;1.30;99.90
37594;DHT22;23441;50.856;6.076;2024-01-07T07:45:13;1.20;99.90
37594;DHT22;23441;50.856;6.076;2024-01-07T07:47:59;1.20;99.90
37594;DHT22;23441;50.856;6.076;2024-01-07T07:50:45;1.20;99.90
37594;DHT22;23441;50.856;6.076;2024-01-07T07:53:31;1.10;99.90
37594;DHT22;23441;50.856;6.076;2024-01-07T07:56:17;1.10;99.90
37594;DHT22;23441;50.856;6.076;2024-01-07T07:59:03;1.10;99.90
37594;DHT22;23441;50.856;6.076;2024-01-07T08:01:49;1.10;99.90
37594;DHT22;23441;50.856;6.076;2024-01-07T08:04:35;1.10;99.90
37594;DHT22;23441;50.856;6.076;2024-01-07T08:07:21;1.10;99.90
37594;DHT22;23441;50.856;6.076;2024-01-07T08:10:08;1.00;99.90
37594;DHT22;23441;50.856;6.076;2024-01-07T08:12:54;1.10;99.90
37594;DHT22;23441;50.856;6.076;2024-01-07T08:15:40;1.00;99.90
37594;DHT22;23441;50.856;6.076;2024-01-07T08:18:26;1.10;99.90
37594;DHT22;23441;50.856;6.076;2024-01-07T08:21:12;1.10;99.90
37594;DHT22;23441;50.856;6.076;2024-01-07T08:23:58;1.10;99.90
37594;DHT22;23441;50.856;6.076;2024-01-07T08:26:44;1.10;99.90
37594;DHT22;23441;50.856;6.076;2024-01-07T08:29:30;1.10;99.90
37594;DHT22;23441;50.856;6.076;2024-01-07T08:32:16;1.10;99.90
37594;DHT22;23441;50.856;6.076;2024-01-07T08:35:02;1.00;99.90
37594;DHT22;23441;50.856;6.076;2024-01-07T08:37:48;1.00;99.90
37594;DHT22;23441;50.856;6.076;2024-01-07T08:40:35;1.10;99.90
37594;DHT22;23441;50.856;6.076;2024-01-07T08:43:21;1.00;99.90
37594;DHT22;23441;50.856;6.076;2024-01-07T08:46:07;1.00;99.90
37594;DHT22;23441;50.856;6.076;2024-01-07T08:48:53;1.00;99.90
37594;DHT22;23441;50.856;6.076;2024-01-07T08:51:39;0.90;99.90
37594;DHT22;23441;50.856;6.076;2024-01-07T08:54:25;0.90;99.90
37594;DHT22;23441;50.856;6.076;2024-01-07T08:57:11;0.90;99.90
37594;DHT22;23441;50.856;6.076;2024-01-07T08:59:57;1.00;99.90
37594;DHT22;23441;50.856;6.076;2024-01-07T09:02:43;1.00;99.90
37594;DHT22;23441;50.856;6.076;2024-01-07T09:05:29;1.00;99.90
37594;DHT22;23441;50.856;6.076;2024-01-07T09:08:15;1.00;99.90
37594;DHT22;23441;50.856;6.076;2024-01-07T09:11:03;0.90;99.90
37594;DHT22;23441;50.856;6.076;2024-01-07T09:13:50;0.80;99.90
37594;DHT22;23441;50.856;6.076;2024-01-07T09:16:36;0.80;99.90
37594;DHT22;23441;50.856;6.076;2024-01-07T09:19:21;0.70;99.90
37594;DHT22;23441;50.856;6.076;2024-01-07T09:22:07;0.70;99.90
37594;DHT22;23441;50.856;6.076;2024-01-07T09:24:53;0.70;99.90
37594;DHT22;23441;50.856;6.076;2024-01-07T09:27:39;0.70;99.90
37594;DHT22;23441;50.856;6.076;2024-01-07T09:30:25;0.70;99.90
37594;DHT22;23441;50.856;6.076;2024-01-07T09:33:11;0.80;99.90
37594;DHT22;23441;50.856;6.076;2024-01-07T09:35:57;0.70;99.90
37594;DHT22;23441;50.856;6.076;2024-01-07T09:38:43;0.70;99.90
37594;DHT22;23441;50.856;6.076;2024-01-07T09:41:30;0.70;99.90
37594;DHT22;23441;50.856;6.076;2024-01-07T09:44:16;0.70;99.90
37594;DHT22;23441;50.856;6.076;2024-01-07T09:47:05;0.60;99.90
37594;DHT22;23441;50.856;6.076;2024-01-07T09:49:52;0.60;99.90
37594;DHT22;23441;50.856;6.076;2024-01-07T09:52:43;0.70;99.90
37594;DHT22;23441;50.856;6.076;2024-01-07T09:55:57;0.70;99.90
37594;DHT22;23441;50.856;6.076;2024-01-07T09:58:45;0.60;99.90
37594;DHT22;23441;50.856;6.076;2024-01-07T10:01:31;0.60;99.90
37594;DHT22;23441;50.856;6.076;2024-01-07T10:04:18;0.70;99.90
37594;DHT22;23441;50.856;6.076;2024-01-07T10:07:04;0.70;99.90
37594;DHT22;23441;50.856;6.076;2024-01-07T10:09:50;0.70;99.90
37594;DHT22;23441;50.856;6.076;2024-01-07T10:12:36;0.70;99.90
37594;DHT22;23441;50.856;6.076;2024-01-07T10:15:22;0.70;99.90
37594;DHT22;23441;50.856;6.076;2024-01-07T10:18:09;0.60;99.90
37594;DHT22;23441;50.856;6.076;2024-01-07T10:20:55;0.60;99.90
37594;DHT22;23441;50.856;6.076;2024-01-07T10:23:41;0.60;99.90
37594;DHT22;23441;50.856;6.076;2024-01-07T10:26:27;0.60;99.90
37594;DHT22;23441;50.856;6.076;2024-01-07T10:29:12;0.60;99.90
37594;DHT22;23441;50.856;6.076;2024-01-07T10:32:02;0.50;99.90
37594;DHT22;23441;50.856;6.076;2024-01-07T10:34:55;0.50;99.90
37594;DHT22;23441;50.856;6.076;2024-01-07T10:37:44;0.60;99.90
37594;DHT22;23441;50.856;6.076;2024-01-07T10:40:31;0.60;99.90
37594;DHT22;23441;50.856;6.076;2024-01-07T10:43:19;0.50;99.90
37594;DHT22;23441;50.856;6.076;2024-01-07T10:46:05;0.50;99.90
37594;DHT22;23441;50.856;6.076;2024-01-07T10:48:59;0.40;99.90
37594;DHT22;23441;50.856;6.076;2024-01-07T10:51:46;0.50;99.90
37594;DHT22;23441;50.856;6.076;2024-01-07T10:54:36;0.50;99.90
37594;DHT22;23441;50.856;6.076;2024-01-07T10:57:48;0.40;99.90
37594;DHT22;23441;50.856;6.076;2024-01-07T11:00:36;0.50;99.90
37594;DHT22;23441;50.856;6.076;2024-01-07T11:03:41;0.50;99.90
37594;DHT22;23441;50.856;6.076;2024-01-07T11:06:51;0.50;99.90
37594;DHT22;23441;50.856;6.076;2024-01-07T11:12:38;0.50;99.90
37594;DHT22;23441;50.856;6.076;2024-01-07T11:18:38;0.60;99.90
37594;DHT22;23441;50.856;6.076;2024-01-07T11:21:25;0.50;99.90
37594;DHT22;23441;50.856;6.076;2024-01-07T11:24:38;0.50;99.90
37594;DHT22;23441;50.856;6.076;2024-01-07T11:27:32;0.60;99.90
37594;DHT22;23441;50.856;6.076;2024-01-07T11:30:19;0.40;99.90
37594;DHT22;23441;50.856;6.076;2024-01-07T11:33:05;0.40;99.90
37594;DHT22;23441;50.856;6.076;2024-01-07T11:36:01;0.40;99.90
37594;DHT22;23441;50.856;6.076;2024-01-07T11:38:48;0.40;99.90
37594;DHT22;23441;50.856;6.076;2024-01-07T11:41:35;0.40;99.90
37594;DHT22;23441;50.856;6.076;2024-01-07T11:44:22;0.30;99.90
37594;DHT22;23441;50.856;6.076;2024-01-07T11:47:08;0.40;99.90
37594;DHT22;23441;50.856;6.076;2024-01-07T11:49:54;0.30;99.90
37594;DHT22;23441;50.856;6.076;2024-01-07T11:52:42;0.20;99.90
37594;DHT22;23441;50.856;6.076;2024-01-07T11:55:28;0.30;99.90
37594;DHT22;23441;50.856;6.076;2024-01-07T11:58:15;0.40;99.90
37594;DHT22;23441;50.856;6.076;2024-01-07T12:01:01;0.30;99.90
37594;DHT22;23441;50.856;6.076;2024-01-07T12:03:48;0.40;99.90
37594;DHT22;23441;50.856;6.076;2024-01-07T12:06:37;0.40;99.90
37594;DHT22;23441;50.856;6.076;2024-01-07T12:09:24;0.30;99.90
37594;DHT22;23441;50.856;6.076;2024-01-07T12:12:10;0.30;99.90
37594;DHT22;23441;50.856;6.076;2024-01-07T12:14:57;0.40;99.90
37594;DHT22;23441;50.856;6.076;2024-01-07T12:17:54;0.30;99.90
37594;DHT22;23441;50.856;6.076;2024-01-07T12:20:41;0.30;99.90
37594;DHT22;23441;50.856;6.076;2024-01-07T12:23:27;0.40;99.90
37594;DHT22;23441;50.856;6.076;2024-01-07T12:26:12;0.30;99.90
37594;DHT22;23441;50.856;6.076;2024-01-07T12:29:00;0.30;99.90
37594;DHT22;23441;50.856;6.076;2024-01-07T12:31:51;0.30;99.90
37594;DHT22;23441;50.856;6.076;2024-01-07T12:34:37;0.30;99.90
37594;DHT22;23441;50.856;6.076;2024-01-07T12:37:23;0.40;99.90
37594;DHT22;23441;50.856;6.076;2024-01-07T12:40:11;0.40;99.90
37594;DHT22;23441;50.856;6.076;2024-01-07T12:42:57;0.30;99.90
37594;DHT22;23441;50.856;6.076;2024-01-07T12:45:43;0.20;99.90
37594;DHT22;23441;50.856;6.076;2024-01-07T12:48:30;0.20;99.90
37594;DHT22;23441;50.856;6.076;2024-01-07T12:51:16;0.20;99.90
37594;DHT22;23441;50.856;6.076;2024-01-07T12:54:02;0.30;99.90
37594;DHT22;23441;50.856;6.076;2024-01-07T12:56:49;0.30;99.90
37594;DHT22;23441;50.856;6.076;2024-01-07T12:59:35;0.30;99.90
37594;DHT22;23441;50.856;6.076;2024-01-07T13:02:21;0.30;99.90
37594;DHT22;23441;50.856;6.076;2024-01-07T13:05:07;0.40;99.90
37594;DHT22;23441;50.856;6.076;2024-01-07T13:07:53;0.30;99.90
37594;DHT22;23441;50.856;6.076;2024-01-07T13:10:39;0.20;99.90
37594;DHT22;23441;50.856;6.076;2024-01-07T13:13:25;0.10;99.90
37594;DHT22;23441;50.856;6.076;2024-01-07T13:16:11;0.20;99.90
37594;DHT22;23441;50.856;6.076;2024-01-07T13:18:58;0.10;99.90
37594;DHT22;23441;50.856;6.076;2024-01-07T13:21:44;0.20;99.90
37594;DHT22;23441;50.856;6.076;2024-01-07T13:24:31;0.20;99.90
37594;DHT22;23441;50.856;6.076;2024-01-07T13:27:17;0.20;99.90
37594;DHT22;23441;50.856;6.076;2024-01-07T13:30:07;0.20;99.90
37594;DHT22;23441;50.856;6.076;2024-01-07T13:32:53;0.20;99.90
37594;DHT22;23441;50.856;6.076;2024-01-07T13:35:42;0.10;99.90
37594;DHT22;23441;50.856;6.076;2024-01-07T13:38:28;0.10;99.90
37594;DHT22;23441;50.856;6.076;2024-01-07T13:41:14;0.00;99.90
37594;DHT22;23441;50.856;6.076;2024-01-07T13:44:01;0.10;99.90
37594;DHT22;23441;50.856;6.076;2024-01-07T13:46:48;0.20;99.90
37594;DHT22;23441;50.856;6.076;2024-01-07T13:49:34;0.10;99.90
37594;DHT22;23441;50.856;6.076;2024-01-07T13:52:20;0.20;99.90
37594;DHT22;23441;50.856;6.076;2024-01-07T13:55:07;0.00;99.90
37594;DHT22;23441;50.856;6.076;2024-01-07T13:57:55;0.00;99.90
37594;DHT22;23441;50.856;6.076;2024-01-07T14:00:41;0.10;99.90
37594;DHT22;23441;50.856;6.076;2024-01-07T14:03:27;0.10;99.90
37594;DHT22;23441;50.856;6.076;2024-01-07T14:06:15;0.10;99.90
37594;DHT22;23441;50.856;6.076;2024-01-07T14:09:01;0.00;99.90
37594;DHT22;23441;50.856;6.076;2024-01-07T14:11:49;-0.10;99.90
37594;DHT22;23441;50.856;6.076;2024-01-07T14:14:35;-0.20;99.90
37594;DHT22;23441;50.856;6.076;2024-01-07T14:17:20;-0.30;99.90
37594;DHT22;23441;50.856;6.076;2024-01-07T14:20:07;-0.30;99.90
37594;DHT22;23441;50.856;6.076;2024-01-07T14:22:53;-0.40;99.90
37594;DHT22;23441;50.856;6.076;2024-01-07T14:25:39;-0.30;99.90
37594;DHT22;23441;50.856;6.076;2024-01-07T14:28:27;-0.30;99.90
37594;DHT22;23441;50.856;6.076;2024-01-07T14:31:13;-0.30;99.90
37594;DHT22;23441;50.856;6.076;2024-01-07T14:33:59;-0.30;99.90
37594;DHT22;23441;50.856;6.076;2024-01-07T14:36:45;-0.20;99.90
37594;DHT22;23441;50.856;6.076;2024-01-07T14:39:31;-0.30;99.90
37594;DHT22;23441;50.856;6.076;2024-01-07T14:42:17;-0.20;99.90
37594;DHT22;23441;50.856;6.076;2024-01-07T14:45:03;-0.20;99.90
37594;DHT22;23441;50.856;6.076;2024-01-07T14:47:50;-0.30;99.90
37594;DHT22;23441;50.856;6.076;2024-01-07T14:50:36;-0.30;99.90
37594;DHT22;23441;50.856;6.076;2024-01-07T14:53:21;-0.40;99.90
37594;DHT22;23441;50.856;6.076;2024-01-07T14:56:07;-0.40;99.90
37594;DHT22;23441;50.856;6.076;2024-01-07T14:58:54;-0.30;99.90
37594;DHT22;23441;50.856;6.076;2024-01-07T15:01:40;-0.40;99.90
37594;DHT22;23441;50.856;6.076;2024-01-07T15:04:29;-0.40;99.90
37594;DHT22;23441;50.856;6.076;2024-01-07T15:07:15;-0.50;99.90
37594;DHT22;23441;50.856;6.076;2024-01-07T15:10:01;-0.50;99.90
37594;DHT22;23441;50.856;6.076;2024-01-07T15:12:47;-0.60;99.90
37594;DHT22;23441;50.856;6.076;2024-01-07T15:15:34;-0.60;99.90
37594;DHT22;23441;50.856;6.076;2024-01-07T15:18:20;-0.70;99.90
37594;DHT22;23441;50.856;6.076;2024-01-07T15:21:07;-0.70;99.90
37594;DHT22;23441;50.856;6.076;2024-01-07T15:23:54;-0.60;99.90
37594;DHT22;23441;50.856;6.076;2024-01-07T15:26:40;-0.70;99.90
37594;DHT22;23441;50.856;6.076;2024-01-07T15:29:26;-0.70;99.90
37594;DHT22;23441;50.856;6.076;2024-01-07T15:32:12;-0.80;99.90
37594;DHT22;23441;50.856;6.076;2024-01-07T15:34:58;-0.80;99.90
37594;DHT22;23441;50.856;6.076;2024-01-07T15:37:44;-0.80;99.90
37594;DHT22;23441;50.856;6.076;2024-01-07T15:40:30;-0.80;99.90
37594;DHT22;23441;50.856;6.076;2024-01-07T15:43:16;-0.80;99.90
37594;DHT22;23441;50.856;6.076;2024-01-07T15:46:04;-0.80;99.90
37594;DHT22;23441;50.856;6.076;2024-01-07T15:48:50;-0.80;99.90
37594;DHT22;23441;50.856;6.076;2024-01-07T15:51:36;-0.80;99.90
37594;DHT22;23441;50.856;6.076;2024-01-07T15:54:22;-0.80;99.90
37594;DHT22;23441;50.856;6.076;2024-01-07T15:57:08;-0.90;99.90
37594;DHT22;23441;50.856;6.076;2024-01-07T15:59:54;-0.90;99.90
37594;DHT22;23441;50.856;6.076;2024-01-07T16:02:40;-0.90;99.90
37594;DHT22;23441;50.856;6.076;2024-01-07T16:05:26;-0.90;99.90
37594;DHT22;23441;50.856;6.076;2024-01-07T16:08:13;-1.00;99.90
37594;DHT22;23441;50.856;6.076;2024-01-07T16:10:59;-1.00;99.90
37594;DHT22;23441;50.856;6.076;2024-01-07T16:13:45;-1.00;99.90
37594;DHT22;23441;50.856;6.076;2024-01-07T16:16:31;-1.00;99.90
37594;DHT22;23441;50.856;6.076;2024-01-07T16:19:17;-1.00;99.90
37594;DHT22;23441;50.856;6.076;2024-01-07T16:22:03;-1.00;99.90
37594;DHT22;23441;50.856;6.076;2024-01-07T16:24:52;-1.10;99.90
37594;DHT22;23441;50.856;6.076;2024-01-07T16:27:38;-1.00;99.90
37594;DHT22;23441;50.856;6.076;2024-01-07T16:30:25;-1.00;99.90
37594;DHT22;23441;50.856;6.076;2024-01-07T16:33:11;-0.90;99.90
37594;DHT22;23441;50.856;6.076;2024-01-07T16:35:56;-1.00;99.90
37594;DHT22;23441;50.856;6.076;2024-01-07T16:38:43;-1.00;99.90
37594;DHT22;23441;50.856;6.076;2024-01-07T16:41:29;-1.00;99.90
37594;DHT22;23441;50.856;6.076;2024-01-07T16:44:15;-1.00;99.90
37594;DHT22;23441;50.856;6.076;2024-01-07T16:47:01;-1.00;99.90
37594;DHT22;23441;50.856;6.076;2024-01-07T16:49:47;-1.10;99.90
37594;DHT22;23441;50.856;6.076;2024-01-07T16:52:33;-1.10;99.90
37594;DHT22;23441;50.856;6.076;2024-01-07T16:55:19;-1.10;99.90
37594;DHT22;23441;50.856;6.076;2024-01-07T16:58:05;-1.10;99.90
37594;DHT22;23441;50.856;6.076;2024-01-07T17:00:51;-1.10;99.90
37594;DHT22;23441;50.856;6.076;2024-01-07T17:03:38;-1.00;99.90
37594;DHT22;23441;50.856;6.076;2024-01-07T17:06:25;-1.00;99.90
37594;DHT22;23441;50.856;6.076;2024-01-07T17:09:11;-1.00;99.90
37594;DHT22;23441;50.856;6.076;2024-01-07T17:11:57;-1.00;99.90
37594;DHT22;23441;50.856;6.076;2024-01-07T17:14:43;-0.90;99.90
37594;DHT22;23441;50.856;6.076;2024-01-07T17:17:31;-1.00;99.90
37594;DHT22;23441;50.856;6.076;2024-01-07T17:20:17;-1.00;99.90
37594;DHT22;23441;50.856;6.076;2024-01-07T17:23:05;-0.90;99.90
37594;DHT22;23441;50.856;6.076;2024-01-07T17:25:51;-0.90;99.90
37594;DHT22;23441;50.856;6.076;2024-01-07T17:28:37;-0.90;99.90
37594;DHT22;23441;50.856;6.076;2024-01-07T17:31:23;-0.90;99.90
37594;DHT22;23441;50.856;6.076;2024-01-07T17:34:09;-0.90;99.90
37594;DHT22;23441;50.856;6.076;2024-01-07T17:36:55;-0.90;99.90
37594;DHT22;23441;50.856;6.076;2024-01-07T17:39:41;-0.90;99.90
37594;DHT22;23441;50.856;6.076;2024-01-07T17:42:28;-0.90;99.90
37594;DHT22;23441;50.856;6.076;2024-01-07T17:45:15;-0.90;99.90
37594;DHT22;23441;50.856;6.076;2024-01-07T17:48:01;-0.90;99.90
37594;DHT22;23441;50.856;6.076;2024-01-07T17:50:48;-0.80;99.90
37594;DHT22;23441;50.856;6.076;2024-01-07T17:53:34;-0.90;99.90